Time;durP1;ratioP1;P1;durP2;ratioP2;P2;SDS_P1;SDS_P2;PMS_P1;PMS_P2;Temp;Humidity;BMP_temperature;BMP_pressure;BME280_temperature;BME280_humidity;BME280_pressure;Samples;Min_cycle;Max_cycle;Signal;HPM_P1;HPM_P2
2021/12/30 00:00:15;;;;;;;239.63;40.17;;;;;;;;;;5035380;28;20091;-82
2021/12/30 00:02:42;;;;;;;236.77;37.55;;;;;;;;;;5037738;28;20064;-82
2021/12/30 00:05:10;;;;;;;176.32;32.30;;;;;;;;;;5051903;28;20490;-82
2021/12/30 00:07:37;;;;;;;153.82;31.27;;;;;;;;;;5036029;28;20569;-83
2021/12/30 00:10:05;;;;;;;170.27;30.25;;;;;;;;;;5036593;28;20573;-83
2021/12/30 00:12:32;;;;;;;169.15;28.38;;;;;;;;;;5052852;28;20795;-82
2021/12/30 00:14:59;;;;;;;139.48;27.90;;;;;;;;;;5036193;28;20076;-82
2021/12/30 00:17:27;;;;;;;153.00;26.25;;;;;;;;;;5035756;28;20133;-83
2021/12/30 00:19:54;;;;;;;154.80;27.50;;;;;;;;;;5036257;28;20045;-82
2021/12/30 00:22:22;;;;;;;155.32;25.95;;;;;;;;;;5035395;28;20093;-82
2021/12/30 00:24:49;;;;;;;161.77;26.58;;;;;;;;;;5035591;28;20116;-81
2021/12/30 00:27:16;;;;;;;154.95;27.13;;;;;;;;;;5036686;28;20129;-82
2021/12/30 00:29:43;;;;;;;135.35;23.67;;;;;;;;;;5052317;28;20624;-82
2021/12/30 00:32:11;;;;;;;160.35;25.67;;;;;;;;;;5036254;28;20659;-82
2021/12/30 00:34:41;;;;;;;158.68;27.30;;;;;;;;;;5035203;28;20563;-82
2021/12/30 00:37:08;;;;;;;147.63;26.88;;;;;;;;;;5035295;28;20122;-82
2021/12/30 00:39:36;;;;;;;126.32;24.90;;;;;;;;;;5053055;28;20066;-82
2021/12/30 00:42:03;;;;;;;132.60;25.42;;;;;;;;;;5029228;28;20846;-82
2021/12/30 00:44:30;;;;;;;164.30;26.60;;;;;;;;;;5045478;28;20128;-82
2021/12/30 00:46:59;;;;;;;203.00;26.27;;;;;;;;;;5032484;28;20152;-82
2021/12/30 00:49:27;;;;;;;161.25;27.25;;;;;;;;;;5034666;28;20128;-81
2021/12/30 00:51:57;;;;;;;128.68;22.77;;;;;;;;;;5047975;28;20453;-82
2021/12/30 00:54:24;;;;;;;165.98;24.52;;;;;;;;;;5031997;28;20435;-82
2021/12/30 00:56:51;;;;;;;138.10;23.35;;;;;;;;;;5049355;28;20080;-82
2021/12/30 00:59:19;;;;;;;140.27;25.63;;;;;;;;;;5035009;28;20112;-81
2021/12/30 01:01:47;;;;;;;126.88;23.70;;;;;;;;;;5034655;28;20426;-82
2021/12/30 01:04:14;;;;;;;121.93;22.00;;;;;;;;;;5035204;28;20049;-81
2021/12/30 01:06:41;;;;;;;111.88;20.08;;;;;;;;;;5035111;28;20132;-80
2021/12/30 01:09:08;;;;;;;112.05;21.33;;;;;;;;;;5035339;28;20080;-81
2021/12/30 01:11:36;;;;;;;124.40;22.80;;;;;;;;;;5033016;28;20092;-81
2021/12/30 01:14:14;;;;;;;133.40;20.92;;;;;;;;;;5046892;28;20445;-81
2021/12/30 01:16:44;;;;;;;138.93;22.10;;;;;;;;;;5031569;28;20142;-81
2021/12/30 01:21:43;;;;;;;122.25;21.45;;;;;;;;;;5047672;28;20119;-80
2021/12/30 01:24:10;;;;;;;151.23;21.35;;;;;;;;;;5032657;28;20140;-80
2021/12/30 01:26:37;;;;;;;125.00;23.60;;;;;;;;;;5034322;28;20136;-80
2021/12/30 01:29:05;;;;;;;123.10;21.30;;;;;;;;;;5034810;28;20449;-81
2021/12/30 01:31:34;;;;;;;141.85;21.20;;;;;;;;;;5048116;28;20144;-80
2021/12/30 01:34:18;;;;;;;129.63;22.58;;;;;;;;;;5026461;28;20053;-81
2021/12/30 01:36:46;;;;;;;110.85;20.27;;;;;;;;;;5048025;28;20077;-80
2021/12/30 01:39:13;;;;;;;111.70;21.48;;;;;;;;;;5029435;28;20072;-80
2021/12/30 01:41:41;;;;;;;123.93;20.15;;;;;;;;;;5034454;28;20079;-80
2021/12/30 01:44:08;;;;;;;124.30;21.67;;;;;;;;;;5028236;28;20642;-80
2021/12/30 01:46:42;;;;;;;178.82;23.02;;;;;;;;;;5020473;28;20493;-80
2021/12/30 01:49:11;;;;;;;91.33;19.80;;;;;;;;;;5032892;28;20704;-80
2021/12/30 01:51:39;;;;;;;117.10;21.33;;;;;;;;;;5032244;28;20132;-81
2021/12/30 01:54:06;;;;;;;160.35;22.33;;;;;;;;;;5033951;28;20482;-80
2021/12/30 01:56:36;;;;;;;161.18;24.83;;;;;;;;;;5029955;28;20088;-80
2021/12/30 01:59:03;;;;;;;139.43;23.50;;;;;;;;;;5043000;28;20069;-80
2021/12/30 02:01:31;;;;;;;191.57;23.23;;;;;;;;;;5032530;28;20135;-80
2021/12/30 02:03:58;;;;;;;242.70;26.42;;;;;;;;;;5032202;28;20045;-80
2021/12/30 02:06:27;;;;;;;159.20;23.83;;;;;;;;;;5030587;28;20072;-80
2021/12/30 02:08:54;;;;;;;121.65;20.50;;;;;;;;;;5033740;28;20536;-81
2021/12/30 02:15:12;;;;;;;120.18;20.27;;;;;;;;;;5050034;28;20098;-80
2021/12/30 02:17:39;;;;;;;153.00;20.88;;;;;;;;;;5033090;28;20140;-80
2021/12/30 02:20:09;;;;;;;177.05;24.77;;;;;;;;;;5043756;28;20688;-80
2021/12/30 02:22:36;;;;;;;123.60;22.17;;;;;;;;;;5050719;28;20553;-80
2021/12/30 02:25:04;;;;;;;144.30;21.23;;;;;;;;;;5051270;28;20072;-80
2021/12/30 02:27:32;;;;;;;149.82;22.45;;;;;;;;;;5032827;28;20091;-81
2021/12/30 02:29:59;;;;;;;413.08;33.28;;;;;;;;;;5033155;28;20053;-80
2021/12/30 02:32:26;;;;;;;135.00;21.83;;;;;;;;;;5033292;28;20131;-81
2021/12/30 02:34:54;;;;;;;192.43;23.80;;;;;;;;;;5033275;28;20100;-81
2021/12/30 02:37:21;;;;;;;183.30;23.90;;;;;;;;;;5031767;28;20059;-81
2021/12/30 02:39:53;;;;;;;119.47;19.75;;;;;;;;;;5051792;28;20076;-81
2021/12/30 02:42:21;;;;;;;116.68;19.70;;;;;;;;;;5031197;28;20199;-81
2021/12/30 02:44:48;;;;;;;108.03;19.48;;;;;;;;;;5030764;28;20053;-81
2021/12/30 02:47:16;;;;;;;142.90;19.52;;;;;;;;;;5031483;28;20049;-81
2021/12/30 02:49:43;;;;;;;87.25;16.40;;;;;;;;;;5033326;28;20056;-81
2021/12/30 02:52:11;;;;;;;119.72;18.90;;;;;;;;;;5033602;28;20505;-81
2021/12/30 02:54:39;;;;;;;69.57;15.57;;;;;;;;;;5031301;28;20123;-81
2021/12/30 02:57:06;;;;;;;76.82;16.02;;;;;;;;;;5036964;28;20749;-81
2021/12/30 02:59:33;;;;;;;79.65;16.48;;;;;;;;;;5031187;28;20073;-81
2021/12/30 03:02:00;;;;;;;63.58;13.93;;;;;;;;;;5048918;28;20120;-80
2021/12/30 03:04:29;;;;;;;55.63;13.70;;;;;;;;;;5036491;28;20560;-80
2021/12/30 03:06:58;;;;;;;57.88;12.88;;;;;;;;;;5052466;28;20103;-81
2021/12/30 03:09:25;;;;;;;68.63;14.00;;;;;;;;;;5054187;28;20049;-80
2021/12/30 03:11:54;;;;;;;48.55;13.05;;;;;;;;;;5052173;28;20083;-80
2021/12/30 03:14:24;;;;;;;64.57;13.88;;;;;;;;;;5035821;28;20100;-80
2021/12/30 03:16:51;;;;;;;65.35;16.92;;;;;;;;;;5052925;28;20155;-80
2021/12/30 03:19:19;;;;;;;85.28;17.92;;;;;;;;;;5051998;28;20120;-80
2021/12/30 03:21:47;;;;;;;83.70;14.98;;;;;;;;;;5035104;28;20052;-79
2021/12/30 03:24:14;;;;;;;78.97;14.98;;;;;;;;;;5034750;28;20136;-79
2021/12/30 03:26:41;;;;;;;84.22;14.55;;;;;;;;;;5033923;28;20710;-79
2021/12/30 03:29:08;;;;;;;76.93;15.05;;;;;;;;;;5051404;28;20141;-79
2021/12/30 03:31:36;;;;;;;66.50;13.32;;;;;;;;;;5033153;28;20067;-79
2021/12/30 03:34:03;;;;;;;81.35;15.40;;;;;;;;;;5033505;28;20135;-77
2021/12/30 03:36:32;;;;;;;68.95;14.13;;;;;;;;;;5051095;28;20088;-79
2021/12/30 03:39:01;;;;;;;78.18;16.75;;;;;;;;;;5033538;28;20131;-79
2021/12/30 03:41:29;;;;;;;80.10;14.50;;;;;;;;;;5029372;28;20136;-78
2021/12/30 03:43:57;;;;;;;80.97;15.18;;;;;;;;;;5026221;28;20156;-78
2021/12/30 03:46:24;;;;;;;73.22;14.85;;;;;;;;;;5030631;28;20142;-78
2021/12/30 03:48:51;;;;;;;91.75;14.80;;;;;;;;;;5047307;28;20045;-78
2021/12/30 03:51:22;;;;;;;122.70;17.38;;;;;;;;;;5038461;28;20055;-79
2021/12/30 03:53:52;;;;;;;105.38;16.90;;;;;;;;;;5032369;28;20045;-78
2021/12/30 03:56:21;;;;;;;85.88;15.48;;;;;;;;;;5050765;28;20049;-78
2021/12/30 03:58:48;;;;;;;103.68;16.58;;;;;;;;;;5040087;28;20055;-79
2021/12/30 04:01:17;;;;;;;157.63;18.98;;;;;;;;;;5048284;28;20124;-79
2021/12/30 04:03:44;;;;;;;108.65;16.33;;;;;;;;;;5030938;28;20637;-79
2021/12/30 04:06:12;;;;;;;146.55;17.77;;;;;;;;;;5033027;28;20060;-79
2021/12/30 04:08:39;;;;;;;187.63;20.20;;;;;;;;;;5022203;28;20091;-78
2021/12/30 04:11:06;;;;;;;249.75;22.20;;;;;;;;;;5026756;28;20128;-79
2021/12/30 04:13:34;;;;;;;283.05;25.42;;;;;;;;;;5045133;28;20049;-79
2021/12/30 04:16:02;;;;;;;334.75;29.05;;;;;;;;;;5044215;28;20157;-79
2021/12/30 04:18:29;;;;;;;398.50;32.95;;;;;;;;;;5026809;28;20044;-79
2021/12/30 04:20:56;;;;;;;302.88;26.63;;;;;;;;;;5031439;28;20152;-79
2021/12/30 04:23:24;;;;;;;301.20;26.90;;;;;;;;;;5048819;28;20660;-79
2021/12/30 04:25:51;;;;;;;380.63;30.85;;;;;;;;;;5047651;28;20140;-80
2021/12/30 04:28:18;;;;;;;396.40;31.60;;;;;;;;;;5031748;28;20057;-79
2021/12/30 04:30:45;;;;;;;353.00;29.58;;;;;;;;;;5031807;28;20770;-79
2021/12/30 04:33:13;;;;;;;408.45;32.03;;;;;;;;;;5044541;28;20805;-79
2021/12/30 04:35:40;;;;;;;382.73;32.90;;;;;;;;;;5046449;28;20588;-79
2021/12/30 04:38:08;;;;;;;308.17;30.15;;;;;;;;;;5029458;28;20151;-79
2021/12/30 04:40:35;;;;;;;512.42;39.80;;;;;;;;;;5029232;28;20077;-79
2021/12/30 04:43:02;;;;;;;317.52;28.40;;;;;;;;;;5037513;28;20128;-79
2021/12/30 04:45:29;;;;;;;477.75;38.15;;;;;;;;;;5044674;28;20155;-80
2021/12/30 04:47:57;;;;;;;278.90;27.42;;;;;;;;;;5028844;28;20056;-79
2021/12/30 04:50:25;;;;;;;206.57;25.58;;;;;;;;;;5032258;28;20088;-79
2021/12/30 04:52:52;;;;;;;237.93;27.27;;;;;;;;;;5049198;28;20087;-80
2021/12/30 04:55:20;;;;;;;231.30;27.50;;;;;;;;;;5049511;28;20442;-79
2021/12/30 04:57:47;;;;;;;328.88;32.47;;;;;;;;;;5032039;28;20052;-79
2021/12/30 05:00:14;;;;;;;294.60;31.08;;;;;;;;;;5042733;28;20123;-79
2021/12/30 05:05:18;;;;;;;338.45;30.73;;;;;;;;;;5035461;28;20046;-80
2021/12/30 05:07:45;;;;;;;263.50;29.05;;;;;;;;;;5052390;28;20537;-80
2021/12/30 05:10:12;;;;;;;269.55;29.85;;;;;;;;;;5032761;28;20483;-79
2021/12/30 05:12:40;;;;;;;325.60;34.85;;;;;;;;;;5049965;28;20103;-79
2021/12/30 05:15:07;;;;;;;387.25;36.05;;;;;;;;;;5032080;28;20529;-79
2021/12/30 05:17:35;;;;;;;179.30;27.50;;;;;;;;;;5048300;28;20099;-79
2021/12/30 05:20:03;;;;;;;211.70;29.02;;;;;;;;;;5031638;28;20077;-79
2021/12/30 05:22:30;;;;;;;164.15;26.77;;;;;;;;;;5049268;28;20136;-79
2021/12/30 05:24:58;;;;;;;223.77;29.30;;;;;;;;;;5049921;28;20088;-79
2021/12/30 05:27:25;;;;;;;323.63;35.97;;;;;;;;;;5030987;28;20658;-79
2021/12/30 05:29:52;;;;;;;258.73;32.70;;;;;;;;;;5040140;28;20077;-79
2021/12/30 05:32:19;;;;;;;251.30;32.28;;;;;;;;;;5031041;28;20096;-78
2021/12/30 05:34:46;;;;;;;242.35;31.60;;;;;;;;;;5031953;28;20510;-79
2021/12/30 05:37:14;;;;;;;252.02;32.75;;;;;;;;;;5030894;28;20132;-79
2021/12/30 05:39:42;;;;;;;227.60;33.47;;;;;;;;;;5032743;28;20652;-80
2021/12/30 05:42:09;;;;;;;252.63;33.50;;;;;;;;;;5049839;28;20080;-79
2021/12/30 05:44:36;;;;;;;199.73;32.88;;;;;;;;;;5049791;28;20118;-79
2021/12/30 05:47:04;;;;;;;171.77;31.23;;;;;;;;;;5049220;28;20077;-79
2021/12/30 05:49:31;;;;;;;222.63;33.00;;;;;;;;;;5050537;28;20091;-79
2021/12/30 05:51:59;;;;;;;179.57;29.67;;;;;;;;;;5049445;28;20132;-79
2021/12/30 05:54:26;;;;;;;216.93;30.90;;;;;;;;;;5038831;28;20509;-78
2021/12/30 05:56:53;;;;;;;220.65;30.70;;;;;;;;;;5029477;28;20116;-78
2021/12/30 05:59:21;;;;;;;167.32;29.70;;;;;;;;;;5047386;28;20049;-78
2021/12/30 06:01:48;;;;;;;196.85;29.58;;;;;;;;;;5046772;28;20056;-78
2021/12/30 06:04:16;;;;;;;185.65;30.38;;;;;;;;;;5030042;28;20386;-78
2021/12/30 06:06:43;;;;;;;216.90;31.95;;;;;;;;;;5030098;28;20454;-78
2021/12/30 06:09:11;;;;;;;220.85;32.75;;;;;;;;;;5050226;28;20053;-79
2021/12/30 06:11:39;;;;;;;256.33;33.15;;;;;;;;;;5043436;28;20059;-79
2021/12/30 06:14:06;;;;;;;233.48;34.03;;;;;;;;;;5047022;28;20084;-79
2021/12/30 06:16:33;;;;;;;263.40;32.35;;;;;;;;;;5030448;28;20130;-78
2021/12/30 06:19:03;;;;;;;165.32;26.08;;;;;;;;;;5047231;28;20049;-78
2021/12/30 06:21:30;;;;;;;233.73;30.05;;;;;;;;;;5047245;28;20120;-79
2021/12/30 06:23:57;;;;;;;246.15;32.47;;;;;;;;;;5029171;28;20149;-78
2021/12/30 06:26:24;;;;;;;191.05;27.00;;;;;;;;;;5040411;28;20143;-78
2021/12/30 06:28:52;;;;;;;202.45;26.30;;;;;;;;;;5046336;28;20087;-78
2021/12/30 06:31:19;;;;;;;143.82;26.17;;;;;;;;;;5045105;28;20409;-77
2021/12/30 06:33:46;;;;;;;191.30;27.70;;;;;;;;;;5043008;28;20080;-77
2021/12/30 06:36:14;;;;;;;217.93;29.30;;;;;;;;;;5024729;28;20144;-77
2021/12/30 06:38:41;;;;;;;184.23;27.88;;;;;;;;;;5044740;28;20450;-77
2021/12/30 06:41:08;;;;;;;141.95;24.08;;;;;;;;;;5045397;28;20099;-77
2021/12/30 06:43:36;;;;;;;228.93;30.15;;;;;;;;;;5027357;28;20049;-77
2021/12/30 06:46:05;;;;;;;247.68;30.02;;;;;;;;;;5044961;28;20141;-77
2021/12/30 06:48:32;;;;;;;225.15;29.30;;;;;;;;;;5027853;28;20144;-77
2021/12/30 06:51:00;;;;;;;185.30;28.77;;;;;;;;;;5037200;28;20125;-77
2021/12/30 06:53:27;;;;;;;212.52;29.98;;;;;;;;;;5043628;28;20119;-77
2021/12/30 06:55:55;;;;;;;232.38;32.10;;;;;;;;;;5045027;28;20132;-77
2021/12/30 06:58:22;;;;;;;175.35;25.92;;;;;;;;;;5047060;28;20155;-77
2021/12/30 07:00:50;;;;;;;181.82;28.25;;;;;;;;;;5043143;28;20052;-77
2021/12/30 07:03:18;;;;;;;182.65;26.88;;;;;;;;;;5046169;28;20498;-77
2021/12/30 07:05:45;;;;;;;177.40;29.25;;;;;;;;;;5026231;28;20147;-77
2021/12/30 07:08:12;;;;;;;197.45;28.17;;;;;;;;;;5031189;28;20416;-76
2021/12/30 07:10:43;;;;;;;172.50;28.75;;;;;;;;;;5036584;28;20052;-76
2021/12/30 07:13:10;;;;;;;156.43;26.55;;;;;;;;;;5027642;28;20636;-76
2021/12/30 07:15:37;;;;;;;141.48;26.50;;;;;;;;;;5027331;28;20193;-77
2021/12/30 07:18:05;;;;;;;158.20;30.15;;;;;;;;;;5043887;28;20114;-77
2021/12/30 07:20:32;;;;;;;174.40;29.15;;;;;;;;;;5049428;28;20049;-77
2021/12/30 07:22:59;;;;;;;218.60;30.00;;;;;;;;;;5045407;28;20754;-77
2021/12/30 07:25:26;;;;;;;204.85;28.35;;;;;;;;;;5037432;28;20159;-77
2021/12/30 07:27:54;;;;;;;153.35;29.05;;;;;;;;;;5042556;28;20063;-77
2021/12/30 07:30:23;;;;;;;196.77;29.30;;;;;;;;;;5026491;28;20088;-76
2021/12/30 07:32:50;;;;;;;185.95;29.27;;;;;;;;;;5027713;28;20102;-78
2021/12/30 07:35:22;;;;;;;171.48;27.90;;;;;;;;;;5043554;28;20514;-78
2021/12/30 07:37:50;;;;;;;180.02;28.00;;;;;;;;;;5019790;28;20136;-78
2021/12/30 07:40:17;;;;;;;159.48;27.50;;;;;;;;;;5040510;28;20160;-78
2021/12/30 07:42:45;;;;;;;155.20;27.80;;;;;;;;;;5049400;28;20124;-78
2021/12/30 07:45:12;;;;;;;178.60;27.40;;;;;;;;;;5046039;28;20063;-78
2021/12/30 07:47:40;;;;;;;191.20;31.27;;;;;;;;;;5021705;28;20773;-78
2021/12/30 07:50:08;;;;;;;156.52;24.10;;;;;;;;;;5027277;28;20536;-78
2021/12/30 07:52:37;;;;;;;166.05;26.58;;;;;;;;;;5029927;28;20124;-77
2021/12/30 07:55:05;;;;;;;184.60;26.83;;;;;;;;;;5031936;28;20593;-77
2021/12/30 07:57:33;;;;;;;195.43;27.88;;;;;;;;;;5032252;28;20087;-77
2021/12/30 08:00:00;;;;;;;195.65;28.27;;;;;;;;;;5047703;28;20161;-77
2021/12/30 08:02:27;;;;;;;156.80;24.48;;;;;;;;;;5048614;28;20083;-78
2021/12/30 08:04:55;;;;;;;185.32;29.40;;;;;;;;;;5029472;28;20116;-77
2021/12/30 08:07:24;;;;;;;162.10;25.73;;;;;;;;;;5043406;28;20063;-76
2021/12/30 08:09:51;;;;;;;162.23;26.67;;;;;;;;;;5047708;28;20432;-77
2021/12/30 08:12:18;;;;;;;194.18;26.55;;;;;;;;;;5025318;28;20800;-77
2021/12/30 08:14:45;;;;;;;159.35;25.88;;;;;;;;;;5048849;28;20757;-77
2021/12/30 08:17:13;;;;;;;172.40;24.83;;;;;;;;;;5049465;28;20044;-76
2021/12/30 08:19:40;;;;;;;196.57;29.60;;;;;;;;;;5048509;28;20079;-77
2021/12/30 08:22:08;;;;;;;174.68;24.23;;;;;;;;;;5049025;28;20504;-76
2021/12/30 08:24:35;;;;;;;156.32;27.08;;;;;;;;;;5048752;28;20053;-77
2021/12/30 08:27:12;;;;;;;216.20;26.45;;;;;;;;;;5048702;28;20071;-78
2021/12/30 08:29:40;;;;;;;197.63;25.30;;;;;;;;;;5044478;28;20048;-76
2021/12/30 08:32:11;;;;;;;171.45;26.42;;;;;;;;;;5046578;28;20136;-77
2021/12/30 08:34:38;;;;;;;146.60;23.55;;;;;;;;;;5030456;28;20130;-77
2021/12/30 08:37:06;;;;;;;207.32;26.83;;;;;;;;;;5046547;28;20075;-78
2021/12/30 08:39:36;;;;;;;176.88;27.73;;;;;;;;;;5040257;28;20152;-78
2021/12/30 08:42:03;;;;;;;204.38;27.17;;;;;;;;;;5031980;28;20386;-76
2021/12/30 08:44:31;;;;;;;234.25;28.38;;;;;;;;;;5042590;28;20436;-77
2021/12/30 08:47:01;;;;;;;170.23;24.08;;;;;;;;;;5047893;28;20056;-79
2021/12/30 08:49:28;;;;;;;209.95;26.17;;;;;;;;;;5044985;28;20139;-79
2021/12/30 08:51:55;;;;;;;239.35;30.20;;;;;;;;;;5048554;28;20045;-79
2021/12/30 08:54:23;;;;;;;177.02;25.42;;;;;;;;;;5049792;28;20596;-78
2021/12/30 08:56:50;;;;;;;233.65;30.02;;;;;;;;;;5041637;28;20092;-79
2021/12/30 08:59:19;;;;;;;206.93;29.98;;;;;;;;;;5047902;28;20052;-80
2021/12/30 09:01:51;;;;;;;215.90;27.20;;;;;;;;;;5029078;28;20045;-80
2021/12/30 09:04:19;;;;;;;261.55;32.03;;;;;;;;;;5035513;28;20061;-81
2021/12/30 09:06:47;;;;;;;312.42;34.83;;;;;;;;;;5053195;28;20370;-82
2021/12/30 09:09:16;;;;;;;369.30;38.20;;;;;;;;;;5053808;28;20497;-83
2021/12/30 09:11:43;;;;;;;279.65;31.73;;;;;;;;;;5054438;28;20760;-83
2021/12/30 09:14:13;;;;;;;434.52;42.88;;;;;;;;;;5035873;28;20049;-83
2021/12/30 09:16:41;;;;;;;377.52;39.08;;;;;;;;;;5036135;28;20133;-83
2021/12/30 09:19:11;;;;;;;505.52;45.72;;;;;;;;;;5036065;28;20080;-83
2021/12/30 09:21:39;;;;;;;375.92;42.55;;;;;;;;;;5035229;28;20048;-83
2021/12/30 09:24:07;;;;;;;229.30;33.22;;;;;;;;;;5035175;28;20079;-83
2021/12/30 09:26:34;;;;;;;321.45;38.10;;;;;;;;;;5030654;28;20133;-82
2021/12/30 09:29:04;;;;;;;309.30;36.55;;;;;;;;;;5026788;28;20104;-81
2021/12/30 09:31:31;;;;;;;241.75;32.75;;;;;;;;;;5031208;28;20041;-82
2021/12/30 09:33:58;;;;;;;216.75;32.10;;;;;;;;;;5053167;28;20056;-82
2021/12/30 09:36:28;;;;;;;276.33;34.33;;;;;;;;;;5045055;28;20142;-84
2021/12/30 09:38:57;;;;;;;285.70;33.55;;;;;;;;;;5030923;28;20136;-82
2021/12/30 09:41:25;;;;;;;327.88;37.78;;;;;;;;;;5030671;28;20061;-82
2021/12/30 09:43:52;;;;;;;288.08;33.53;;;;;;;;;;5034895;28;20045;-81
2021/12/30 09:46:20;;;;;;;339.35;36.00;;;;;;;;;;5049731;28;20443;-81
2021/12/30 09:48:49;;;;;;;212.77;31.23;;;;;;;;;;5027858;28;20486;-80
2021/12/30 09:51:16;;;;;;;233.63;29.38;;;;;;;;;;5032573;28;20049;-89
2021/12/30 09:53:43;;;;;;;373.95;38.60;;;;;;;;;;5032173;28;20121;-85
2021/12/30 09:56:15;;;;;;;233.23;32.85;;;;;;;;;;5034907;28;20655;-84
2021/12/30 09:58:42;;;;;;;389.05;39.60;;;;;;;;;;5045571;28;20441;-81
2021/12/30 10:01:09;;;;;;;213.43;29.60;;;;;;;;;;5046130;28;20107;-76
2021/12/30 10:03:37;;;;;;;240.13;31.15;;;;;;;;;;5042977;28;20049;-77
2021/12/30 10:06:06;;;;;;;218.27;27.90;;;;;;;;;;5024225;28;20149;-77
2021/12/30 10:08:39;;;;;;;175.27;27.83;;;;;;;;;;5027381;28;20132;-76
2021/12/30 10:11:13;;;;;;;164.45;26.67;;;;;;;;;;5041906;28;20080;-76
2021/12/30 10:13:49;;;;;;;185.20;25.67;;;;;;;;;;5045949;28;20087;-77
2021/12/30 10:16:17;;;;;;;144.73;24.20;;;;;;;;;;5021807;28;20049;-76
2021/12/30 10:22:15;;;;;;;148.55;25.58;;;;;;;;;;5032068;22;20100;-76
2021/12/30 10:24:43;;;;;;;193.35;25.83;;;;;;;;;;5020223;28;20073;-76
2021/12/30 10:27:21;;;;;;;163.95;23.27;;;;;;;;;;5048835;23;20120;-80
2021/12/30 10:29:50;;;;;;;135.32;24.98;;;;;;;;;;5067785;28;20098;-81
2021/12/30 10:35:17;;;;;;;151.07;26.17;;;;;;;;;;5068869;28;20051;-81
2021/12/30 10:40:52;;;;;;;146.27;25.20;;;;;;;;;;5012849;28;20037;-75
2021/12/30 10:43:26;;;;;;;151.68;25.33;;;;;;;;;;5004806;28;20800;-75
2021/12/30 10:46:12;;;;;;;116.60;22.85;;;;;;;;;;5024880;28;20160;-76
2021/12/30 10:48:47;;;;;;;144.88;24.15;;;;;;;;;;5024121;28;20055;-76
2021/12/30 10:51:16;;;;;;;178.38;29.50;;;;;;;;;;5021820;28;20132;-76
2021/12/30 10:53:44;;;;;;;151.55;27.50;;;;;;;;;;5024349;28;20136;-75
2021/12/30 10:56:31;;;;;;;158.32;23.75;;;;;;;;;;5019018;28;20140;-76
2021/12/30 10:59:13;;;;;;;148.30;25.35;;;;;;;;;;5014647;28;20049;-80
2021/12/30 11:01:42;;;;;;;130.45;23.13;;;;;;;;;;4994529;28;20132;-80
2021/12/30 11:04:11;;;;;;;146.27;23.33;;;;;;;;;;5021621;28;20049;-80
2021/12/30 11:06:41;;;;;;;171.65;25.38;;;;;;;;;;5030326;28;20053;-81
2021/12/30 11:12:38;;;;;;;133.43;22.08;;;;;;;;;;5060816;23;20081;-79
2021/12/30 11:15:17;;;;;;;165.27;25.90;;;;;;;;;;5046152;28;20121;-78
2021/12/30 11:17:45;;;;;;;146.23;23.85;;;;;;;;;;5060571;28;20071;-75
2021/12/30 11:20:12;;;;;;;163.38;24.55;;;;;;;;;;5047549;28;20147;-75
2021/12/30 11:22:39;;;;;;;150.38;23.80;;;;;;;;;;5063120;28;20058;-76
2021/12/30 11:25:08;;;;;;;150.85;25.75;;;;;;;;;;5048571;28;20132;-77
2021/12/30 11:27:39;;;;;;;155.65;24.70;;;;;;;;;;5050277;28;20798;-77
2021/12/30 11:30:10;;;;;;;145.52;23.85;;;;;;;;;;5048224;28;20489;-77
2021/12/30 11:32:37;;;;;;;143.27;24.85;;;;;;;;;;5047061;28;20846;-77
2021/12/30 11:35:06;;;;;;;156.30;24.15;;;;;;;;;;5051060;28;20044;-77
2021/12/30 11:37:34;;;;;;;171.73;24.67;;;;;;;;;;5051698;28;20087;-84
2021/12/30 11:40:02;;;;;;;166.27;26.85;;;;;;;;;;5072240;28;20532;-83
2021/12/30 11:42:37;;;;;;;122.70;21.95;;;;;;;;;;5070202;28;20049;-83
2021/12/30 11:45:21;;;;;;;126.93;23.10;;;;;;;;;;5074857;28;20075;-83
2021/12/30 11:47:49;;;;;;;164.00;24.30;;;;;;;;;;5057462;28;20040;-86
2021/12/30 11:50:39;;;;;;;159.10;23.83;;;;;;;;;;5054168;28;20102;-87
2021/12/30 11:53:08;;;;;;;153.55;23.15;;;;;;;;;;5054972;28;20478;-86
2021/12/30 11:55:54;;;;;;;136.13;22.85;;;;;;;;;;5053713;28;20087;-86
2021/12/30 11:58:32;;;;;;;135.52;20.73;;;;;;;;;;5074726;28;20082;-85
2021/12/30 12:01:05;;;;;;;136.35;22.35;;;;;;;;;;5075027;28;20127;-85
2021/12/30 12:03:37;;;;;;;136.65;22.58;;;;;;;;;;5057540;28;20045;-83
2021/12/30 12:06:36;;;;;;;147.27;21.92;;;;;;;;;;5057927;28;20052;-85
2021/12/30 12:09:08;;;;;;;167.90;24.75;;;;;;;;;;5055773;28;20152;-86
2021/12/30 12:11:42;;;;;;;167.80;24.27;;;;;;;;;;5055990;28;20083;-87
2021/12/30 12:14:14;;;;;;;175.90;25.48;;;;;;;;;;5074221;28;20083;-87
2021/12/30 12:16:50;;;;;;;148.13;22.38;;;;;;;;;;5074091;28;20132;-85
2021/12/30 12:19:18;;;;;;;193.73;26.52;;;;;;;;;;5056347;28;20080;-85
2021/12/30 12:21:51;;;;;;;217.13;26.35;;;;;;;;;;5073394;28;20748;-86
2021/12/30 12:24:28;;;;;;;165.00;24.55;;;;;;;;;;5073947;28;20154;-86
2021/12/30 12:27:13;;;;;;;172.50;25.08;;;;;;;;;;5073038;28;20051;-87
2021/12/30 12:29:45;;;;;;;170.20;22.35;;;;;;;;;;5072909;28;20135;-85
2021/12/30 12:32:14;;;;;;;178.43;25.92;;;;;;;;;;5073526;28;20820;-87
2021/12/30 12:34:46;;;;;;;182.27;25.35;;;;;;;;;;5052165;28;20083;-86
2021/12/30 12:37:33;;;;;;;190.27;27.08;;;;;;;;;;5052226;28;20094;-84
2021/12/30 12:40:03;;;;;;;275.08;31.27;;;;;;;;;;5055312;28;20147;-81
2021/12/30 12:42:42;;;;;;;219.00;27.05;;;;;;;;;;5072986;28;20584;-82
2021/12/30 12:45:27;;;;;;;418.88;36.17;;;;;;;;;;5071841;28;20124;-82
2021/12/30 12:48:13;;;;;;;374.98;35.38;;;;;;;;;;5049665;28;20052;-83
2021/12/30 12:50:46;;;;;;;404.52;35.72;;;;;;;;;;5065117;28;20493;-83
2021/12/30 12:53:20;;;;;;;279.60;27.95;;;;;;;;;;5052795;28;20053;-84
2021/12/30 12:55:47;;;;;;;182.07;22.23;;;;;;;;;;5053871;28;20076;-82
2021/12/30 12:58:17;;;;;;;178.25;22.02;;;;;;;;;;5073078;28;20091;-84
2021/12/30 13:00:55;;;;;;;518.55;42.53;;;;;;;;;;5068651;28;20127;-84
2021/12/30 13:03:23;;;;;;;152.27;20.33;;;;;;;;;;5054635;28;20048;-85
2021/12/30 13:05:53;;;;;;;254.80;27.50;;;;;;;;;;5073258;28;20088;-78
2021/12/30 13:08:20;;;;;;;298.02;28.92;;;;;;;;;;5063010;28;20076;-79
2021/12/30 13:10:48;;;;;;;264.88;26.95;;;;;;;;;;5068666;28;20143;-78
2021/12/30 13:13:31;;;;;;;116.97;16.80;;;;;;;;;;5051494;28;20102;-78
2021/12/30 13:15:59;;;;;;;131.73;19.50;;;;;;;;;;5051034;28;20124;-77
2021/12/30 13:18:27;;;;;;;341.92;30.55;;;;;;;;;;5061126;28;20444;-82
2021/12/30 13:20:54;;;;;;;217.85;22.63;;;;;;;;;;5072759;28;20124;-83
2021/12/30 13:23:40;;;;;;;362.63;30.92;;;;;;;;;;5054969;28;20412;-84
2021/12/30 13:26:09;;;;;;;239.77;22.67;;;;;;;;;;5055695;28;20126;-84
2021/12/30 13:28:51;;;;;;;126.57;19.58;;;;;;;;;;5050047;28;20128;-85
2021/12/30 13:31:18;;;;;;;128.00;18.45;;;;;;;;;;5059063;28;20079;-84
2021/12/30 13:33:53;;;;;;;230.75;23.63;;;;;;;;;;5070673;28;20779;-88
2021/12/30 13:36:35;;;;;;;82.30;15.57;;;;;;;;;;5057303;28;20048;-85
2021/12/30 13:39:10;;;;;;;125.47;17.13;;;;;;;;;;5051557;28;20052;-86
2021/12/30 13:41:38;;;;;;;329.90;27.35;;;;;;;;;;5072636;28;20048;-87
2021/12/30 13:44:08;;;;;;;119.70;15.38;;;;;;;;;;5071013;28;20460;-87
2021/12/30 13:46:36;;;;;;;113.68;14.40;;;;;;;;;;5051449;28;20135;-86
2021/12/30 13:49:03;;;;;;;90.20;13.48;;;;;;;;;;5071324;28;20044;-76
2021/12/30 13:51:31;;;;;;;128.32;15.02;;;;;;;;;;5059190;28;20083;-78
2021/12/30 13:53:58;;;;;;;106.28;13.80;;;;;;;;;;5047894;28;20143;-77
2021/12/30 13:56:27;;;;;;;64.05;10.93;;;;;;;;;;5034050;28;20843;-77
2021/12/30 13:58:56;;;;;;;87.55;13.73;;;;;;;;;;5045128;28;20072;-77
2021/12/30 14:01:34;;;;;;;86.05;13.27;;;;;;;;;;5065288;28;20497;-77
2021/12/30 14:04:09;;;;;;;118.90;13.93;;;;;;;;;;5063457;28;20044;-77
2021/12/30 14:06:37;;;;;;;;;;;;;;;;;;5048122;28;20113;-77
2021/12/30 14:09:10;;;;;;;100.45;12.85;;;;;;;;;;5049430;28;19963;-77
2021/12/30 14:11:45;;;;;;;171.40;17.05;;;;;;;;;;5049908;28;20084;-77
2021/12/30 14:14:16;;;;;;;225.40;19.03;;;;;;;;;;5049709;28;20052;-76
2021/12/30 14:16:46;;;;;;;153.40;15.52;;;;;;;;;;5065109;28;20135;-78
2021/12/30 14:19:14;;;;;;;184.02;18.08;;;;;;;;;;5061218;28;20056;-77
2021/12/30 14:21:43;;;;;;;127.10;14.00;;;;;;;;;;5062989;28;20131;-77
2021/12/30 14:24:14;;;;;;;214.77;20.60;;;;;;;;;;5045395;28;20506;-77
2021/12/30 14:26:42;;;;;;;183.63;17.85;;;;;;;;;;5064770;28;20119;-78
2021/12/30 14:29:13;;;;;;;153.65;15.52;;;;;;;;;;5050655;28;20072;-78
2021/12/30 14:31:43;;;;;;;95.65;12.70;;;;;;;;;;5048417;28;20163;-78
2021/12/30 14:34:16;;;;;;;87.28;13.70;;;;;;;;;;5067921;28;20914;-78
2021/12/30 14:37:04;;;;;;;58.45;10.77;;;;;;;;;;5047017;28;20067;-78
2021/12/30 14:39:39;;;;;;;101.10;12.18;;;;;;;;;;5049359;28;20048;-79